Springfield Beckley Municipal Airport
KSGH : now visible

Airfield :











YOU CAN JOIN US ON...

 
LOGIN :

Register | Disclaimer

   EN    FR    IT 

 









Legend :    VFR   Marginal VFR   IFR   Intensive IFR   Very Intensive IFR
Visi :
Ceiling :
>= 8 km
>= 3000ft
5 to 8 km
1000 to 3000 ft
1500m to 5 km
500 to 1000 ft
800 to 1500m
200 to 500 ft
< 800m
< 200 ft
Symbols :   Thunderstorms  Fog  Heavy snow  Heavy precipitations  Wind > 20 kt






- Airport Elevation : 1051 ft


KSGH - Springfield Beckley Municipal

CURRENT METAR :
  • 180556Z AUTO 18008KT 10SM FEW047 OVC060 07/02 A2987 RMK AO2 SLP123 P0041 60222 T00670017 10067 20044 56018

EXPIRED METARs :
  • 180456Z AUTO 16009KT 10SM OVC060 06/00 A2988 RMK AO2 SLP127 P0052 T00560000
  • 180356Z AUTO 14012KT 10SM OVC080 06/M01 A2990 RMK AO2 RAE11 SLP133 P0054 T00561006 400671056

TAF N/A



MET'MAP, your aeronautical weather chart ! - Copyright ORBIFLY December 2007 - Disclaimer

ORBIFLY MET'MAP TEAM :

Programming & Development : Alexandra Zaïnal
Concept & original design : Baudouin d'Aumeries
Assistance for programming : Marc-Olivier Méhu
Technical & hardware support : Manuel Goepfert

Contact : metmap@orbifly.com




SOURCES & CREDITS :

   NOAA       Earth
Advisory